Time;durP1;ratioP1;P1;durP2;ratioP2;P2;SDS_P1;SDS_P2;PMS_P1;PMS_P2;Temp;Humidity;BMP_temperature;BMP_pressure;BME280_temperature;BME280_humidity;BME280_pressure;Samples;Min_cycle;Max_cycle;Signal;HPM_P1;HPM_P2
2022/04/11 00:00:25;;;;;;;3.75;1.80;;;0.50;99.90;;;;;;4953696;29;20027;-75
2022/04/11 00:02:50;;;;;;;1.25;1.15;;;0.50;99.90;;;;;;4953411;29;20047;-75
2022/04/11 00:05:16;;;;;;;4.57;1.80;;;0.60;99.90;;;;;;4953213;29;20078;-76
2022/04/11 00:07:42;;;;;;;1.52;1.42;;;0.60;99.90;;;;;;4953099;28;20031;-74
2022/04/11 00:10:08;;;;;;;1.35;1.20;;;0.70;99.90;;;;;;4952812;29;20031;-75
2022/04/11 00:12:36;;;;;;;2.90;1.60;;;0.70;99.90;;;;;;4953871;29;20444;-74
2022/04/11 00:15:06;;;;;;;1.20;1.10;;;0.60;99.90;;;;;;4953147;29;20034;-75
2022/04/11 00:17:32;;;;;;;4.65;1.38;;;0.60;99.90;;;;;;4953443;29;20028;-75
2022/04/11 00:19:58;;;;;;;6.72;1.30;;;0.50;99.90;;;;;;4952854;29;20038;-74
2022/04/11 00:22:23;;;;;;;1.60;1.50;;;0.50;99.90;;;;;;4952948;29;20086;-74
2022/04/11 00:24:50;;;;;;;1.52;1.40;;;0.50;99.90;;;;;;4953185;29;20086;-74
2022/04/11 00:27:16;;;;;;;3.20;1.90;;;0.50;99.90;;;;;;4952495;29;20122;-74
2022/04/11 00:29:41;;;;;;;2.38;1.75;;;0.50;99.90;;;;;;4952325;28;20134;-74
2022/04/11 00:32:07;;;;;;;2.92;1.33;;;0.50;99.90;;;;;;4952455;29;20043;-74
2022/04/11 00:34:33;;;;;;;2.45;1.58;;;0.40;99.90;;;;;;4952238;29;20066;-75
2022/04/11 00:36:59;;;;;;;2.35;1.50;;;0.40;99.90;;;;;;4952338;29;20051;-74
2022/04/11 00:39:24;;;;;;;1.58;1.45;;;-1.30;99.90;;;;;;4952180;29;20417;-74
2022/04/11 00:41:50;;;;;;;1.70;1.45;;;0.30;99.90;;;;;;4952761;29;20046;-74
2022/04/11 00:44:16;;;;;;;3.13;1.58;;;0.30;99.90;;;;;;4952948;29;20395;-76
2022/04/11 00:46:41;;;;;;;3.33;1.52;;;0.30;99.90;;;;;;4952769;29;20393;-74
2022/04/11 00:49:08;;;;;;;1.92;1.45;;;0.30;99.90;;;;;;4952666;29;20031;-75
2022/04/11 00:51:34;;;;;;;2.72;1.65;;;0.40;99.90;;;;;;4934795;29;20555;-75
2022/04/11 00:54:01;;;;;;;3.17;1.70;;;0.30;99.90;;;;;;4934209;29;20046;-74
2022/04/11 00:56:29;;;;;;;1.70;1.35;;;0.30;99.90;;;;;;4952193;29;20078;-75
2022/04/11 00:58:57;;;;;;;1.48;1.33;;;0.30;99.90;;;;;;4952425;29;20619;-75
2022/04/11 01:01:23;;;;;;;2.05;1.70;;;0.30;99.90;;;;;;4952190;29;20039;-75
2022/04/11 01:03:51;;;;;;;2.97;2.20;;;0.20;99.90;;;;;;4952764;29;20082;-75
2022/04/11 01:06:16;;;;;;;3.08;1.88;;;0.20;99.90;;;;;;4934896;29;20023;-74
2022/04/11 01:08:42;;;;;;;2.88;1.92;;;0.30;99.90;;;;;;4955044;29;20135;-75
2022/04/11 01:11:08;;;;;;;2.65;1.92;;;0.30;99.90;;;;;;4952034;29;20027;-74
2022/04/11 01:13:34;;;;;;;1.48;1.35;;;0.20;99.90;;;;;;4951941;29;20042;-74
2022/04/11 01:16:02;;;;;;;2.38;1.63;;;0.20;99.90;;;;;;4935706;29;20150;-75
2022/04/11 01:18:27;;;;;;;1.63;1.38;;;0.20;99.90;;;;;;4952201;29;20023;-74
2022/04/11 01:20:54;;;;;;;3.63;1.75;;;0.10;99.90;;;;;;4951921;28;20500;-75
2022/04/11 01:23:20;;;;;;;1.75;1.42;;;0.10;99.90;;;;;;4952417;29;20118;-74
2022/04/11 01:25:51;;;;;;;4.72;1.55;;;0.10;99.90;;;;;;4951919;29;20056;-74
2022/04/11 01:28:17;;;;;;;3.40;2.13;;;0.10;99.90;;;;;;4952355;29;20023;-74
2022/04/11 01:30:42;;;;;;;2.25;1.77;;;0.10;99.90;;;;;;4952069;29;20024;-76
2022/04/11 01:33:25;;;;;;;4.50;1.58;;;0.10;99.90;;;;;;4952439;29;20467;-74
2022/04/11 01:35:51;;;;;;;1.92;1.58;;;0.10;99.90;;;;;;4952524;29;20027;-74
2022/04/11 01:38:17;;;;;;;2.58;1.60;;;0.20;99.90;;;;;;4951873;29;20023;-75
2022/04/11 01:40:56;;;;;;;1.58;1.48;;;0.30;99.90;;;;;;4951958;29;20503;-74
2022/04/11 01:43:23;;;;;;;2.05;1.45;;;0.30;99.90;;;;;;4951882;29;20023;-74
2022/04/11 01:45:49;;;;;;;1.33;1.23;;;0.40;99.90;;;;;;4934534;29;20437;-74
2022/04/11 01:48:16;;;;;;;1.42;1.33;;;0.40;99.90;;;;;;4951822;29;20110;-74
2022/04/11 01:50:42;;;;;;;3.22;1.60;;;0.40;99.90;;;;;;4951683;29;20027;-74
2022/04/11 01:53:11;;;;;;;3.03;1.83;;;0.40;99.90;;;;;;4951723;29;20042;-75
2022/04/11 01:55:37;;;;;;;2.58;1.70;;;0.40;99.90;;;;;;4951478;29;20031;-74
2022/04/11 01:58:04;;;;;;;1.75;1.65;;;0.40;99.90;;;;;;4934500;29;20047;-75
2022/04/11 02:00:30;;;;;;;1.58;1.48;;;0.40;99.90;;;;;;4952655;29;20023;-75
2022/04/11 02:02:57;;;;;;;2.08;1.50;;;0.40;99.90;;;;;;4934553;29;20381;-74
2022/04/11 02:05:22;;;;;;;3.05;2.00;;;0.40;99.90;;;;;;4952387;29;20026;-74
2022/04/11 02:07:49;;;;;;;1.98;1.48;;;0.50;99.90;;;;;;4951892;29;20031;-75
2022/04/11 02:10:14;;;;;;;2.00;1.58;;;0.60;99.90;;;;;;4952925;29;20052;-75
2022/04/11 02:12:41;;;;;;;4.03;1.70;;;0.60;99.90;;;;;;4951809;29;20039;-74
2022/04/11 02:15:08;;;;;;;5.68;1.73;;;0.60;99.90;;;;;;4952053;29;20030;-75
2022/04/11 02:17:34;;;;;;;2.47;1.60;;;0.70;99.90;;;;;;4951649;29;20103;-75
2022/04/11 02:19:59;;;;;;;2.63;1.73;;;0.70;99.90;;;;;;4951520;29;20438;-75
2022/04/11 02:22:25;;;;;;;3.42;1.60;;;0.60;99.90;;;;;;4951641;29;20144;-75
2022/04/11 02:24:51;;;;;;;3.38;1.52;;;0.50;99.90;;;;;;4951692;29;20067;-75
2022/04/11 02:27:16;;;;;;;2.40;1.83;;;0.50;99.90;;;;;;4951547;29;20035;-75
2022/04/11 02:29:42;;;;;;;3.63;2.17;;;0.50;99.90;;;;;;4951445;28;20051;-75
2022/04/11 02:32:09;;;;;;;3.42;1.90;;;0.60;99.90;;;;;;4954612;28;20043;-75
2022/04/11 02:34:35;;;;;;;1.60;1.50;;;0.70;99.90;;;;;;4955118;29;20023;-74
2022/04/11 02:37:00;;;;;;;1.92;1.70;;;0.80;99.90;;;;;;4955314;29;20039;-74
2022/04/11 02:39:26;;;;;;;1.60;1.45;;;0.70;99.90;;;;;;4937076;29;20054;-74
2022/04/11 02:41:52;;;;;;;3.42;1.63;;;0.60;99.90;;;;;;4938027;29;20031;-75
2022/04/11 02:44:18;;;;;;;5.53;1.50;;;0.60;99.90;;;;;;4955126;29;20050;-74
2022/04/11 02:46:44;;;;;;;3.13;2.08;;;0.60;99.90;;;;;;4955342;29;20504;-75
2022/04/11 02:49:10;;;;;;;1.70;1.60;;;0.50;99.90;;;;;;4954987;29;20019;-74
2022/04/11 02:51:35;;;;;;;3.08;1.70;;;0.40;99.90;;;;;;4955058;29;20053;-74
2022/04/11 02:54:07;;;;;;;2.55;1.55;;;0.40;99.90;;;;;;4954619;29;20027;-74
2022/04/11 02:56:35;;;;;;;5.13;2.03;;;0.50;99.90;;;;;;4937647;29;20074;-74
2022/04/11 02:59:01;;;;;;;1.90;1.70;;;0.40;99.90;;;;;;4954683;29;20035;-74
2022/04/11 03:01:27;;;;;;;2.97;1.42;;;0.30;99.90;;;;;;4954929;29;20034;-75
2022/04/11 03:03:52;;;;;;;3.00;1.92;;;0.20;99.90;;;;;;4954745;29;20042;-74
2022/04/11 03:06:18;;;;;;;2.17;1.60;;;0.10;99.90;;;;;;4954032;29;20027;-75
2022/04/11 03:08:44;;;;;;;2.20;1.85;;;-0.10;99.90;;;;;;4953909;29;20027;-74
2022/04/11 03:11:10;;;;;;;3.08;1.90;;;-0.20;99.90;;;;;;4938770;29;20027;-75
2022/04/11 03:13:35;;;;;;;1.95;1.73;;;-0.30;99.90;;;;;;4937694;29;20045;-75
2022/04/11 03:16:01;;;;;;;3.00;1.70;;;-0.30;99.90;;;;;;4937307;29;20468;-75
2022/04/11 03:18:27;;;;;;;1.77;1.48;;;-0.40;99.90;;;;;;4953948;29;20377;-75
2022/04/11 03:20:52;;;;;;;2.58;1.48;;;-0.40;99.90;;;;;;4954608;29;20024;-75
2022/04/11 03:23:18;;;;;;;1.58;1.48;;;-0.20;99.90;;;;;;4954317;29;20111;-75
2022/04/11 03:25:43;;;;;;;3.65;1.67;;;-0.40;99.90;;;;;;4954045;29;20384;-74
2022/04/11 03:28:09;;;;;;;2.30;2.10;;;0.10;99.90;;;;;;4954608;29;20067;-75
2022/04/11 03:30:35;;;;;;;3.10;1.50;;;-0.30;99.90;;;;;;4954604;28;20488;-75
2022/04/11 03:33:00;;;;;;;2.08;1.60;;;-0.10;99.90;;;;;;4953717;29;20110;-75
2022/04/11 03:35:26;;;;;;;4.75;1.90;;;-0.30;99.90;;;;;;4953979;29;20110;-75
2022/04/11 03:37:52;;;;;;;2.03;1.70;;;-0.40;99.90;;;;;;4953657;29;20027;-75
2022/04/11 03:40:17;;;;;;;1.63;1.52;;;-0.40;99.90;;;;;;4954146;29;20110;-74
2022/04/11 03:42:43;;;;;;;3.95;1.60;;;-0.40;99.90;;;;;;4953030;28;20140;-75
2022/04/11 03:45:11;;;;;;;4.03;1.73;;;-0.50;99.90;;;;;;4953576;29;20032;-74
2022/04/11 03:47:38;;;;;;;2.43;1.40;;;-0.40;99.90;;;;;;4954815;29;20031;-75
2022/04/11 03:50:04;;;;;;;3.92;1.77;;;-0.50;99.90;;;;;;4953481;29;20271;-74
2022/04/11 03:52:30;;;;;;;1.85;1.63;;;-0.50;99.90;;;;;;4953708;29;20054;-75
2022/04/11 03:54:56;;;;;;;6.07;1.80;;;-0.50;99.90;;;;;;4953620;29;20034;-75
2022/04/11 03:57:22;;;;;;;1.52;1.40;;;-0.50;99.90;;;;;;4953648;29;20135;-75
2022/04/11 03:59:47;;;;;;;1.80;1.70;;;-0.40;99.90;;;;;;4954292;29;20023;-75
2022/04/11 04:02:13;;;;;;;1.83;1.73;;;-0.70;99.90;;;;;;4954025;29;20028;-74
2022/04/11 04:04:39;;;;;;;3.33;1.55;;;-0.10;99.90;;;;;;4935985;29;20027;-75
2022/04/11 04:07:05;;;;;;;1.98;1.52;;;-0.50;99.90;;;;;;4936767;29;20124;-75
2022/04/11 04:09:30;;;;;;;2.15;1.60;;;-0.70;99.90;;;;;;4953438;29;20019;-75
2022/04/11 04:11:56;;;;;;;4.30;1.58;;;-0.70;99.90;;;;;;4954813;29;20035;-75
2022/04/11 04:14:22;;;;;;;1.70;1.58;;;0.10;99.90;;;;;;4953130;29;20034;-75
2022/04/11 04:16:48;;;;;;;4.47;1.90;;;-0.50;99.90;;;;;;4953233;29;20091;-75
2022/04/11 04:19:13;;;;;;;2.88;1.30;;;-0.20;99.90;;;;;;4952771;29;20500;-77
2022/04/11 04:21:39;;;;;;;2.78;1.92;;;-0.50;99.90;;;;;;4953616;29;20063;-75
2022/04/11 04:24:05;;;;;;;2.92;2.20;;;-0.60;99.90;;;;;;4935843;29;20481;-75
2022/04/11 04:26:31;;;;;;;2.65;2.05;;;-0.60;99.90;;;;;;4953176;29;20027;-75
2022/04/11 04:28:56;;;;;;;5.32;2.55;;;-0.30;99.90;;;;;;4952740;28;20043;-75
2022/04/11 04:31:22;;;;;;;2.92;1.85;;;-0.50;99.90;;;;;;4953761;29;20063;-76
2022/04/11 04:33:48;;;;;;;2.85;2.15;;;-0.50;99.90;;;;;;4953090;29;20027;-74
2022/04/11 04:36:13;;;;;;;4.93;1.58;;;0.00;99.90;;;;;;4935607;29;20500;-75
2022/04/11 04:38:39;;;;;;;3.08;1.75;;;-0.50;99.90;;;;;;4953376;29;20482;-75
2022/04/11 04:41:05;;;;;;;3.80;2.38;;;-0.50;99.90;;;;;;4953188;29;20019;-75
2022/04/11 04:43:30;;;;;;;2.75;2.08;;;-0.30;99.90;;;;;;4953062;29;20493;-75
2022/04/11 04:45:56;;;;;;;2.47;1.90;;;-0.30;99.90;;;;;;4952564;29;20027;-75
2022/04/11 04:48:22;;;;;;;3.88;2.03;;;-0.60;99.90;;;;;;4952559;29;20031;-75
2022/04/11 04:50:47;;;;;;;3.35;2.03;;;-0.50;99.90;;;;;;4952930;29;20159;-75
2022/04/11 04:53:13;;;;;;;3.20;2.58;;;-0.40;99.90;;;;;;4952405;29;20045;-74
2022/04/11 04:55:39;;;;;;;3.00;1.98;;;-0.10;99.90;;;;;;4951241;28;20027;-76
2022/04/11 04:58:04;;;;;;;3.20;1.83;;;-0.10;99.90;;;;;;4952989;29;20023;-75
2022/04/11 05:00:30;;;;;;;2.20;1.90;;;-0.10;99.90;;;;;;4953042;29;20031;-75
2022/04/11 05:02:56;;;;;;;3.70;2.17;;;-0.10;99.90;;;;;;4953140;29;20475;-75
2022/04/11 05:05:22;;;;;;;2.85;2.35;;;-0.10;99.90;;;;;;4952173;29;20477;-75
2022/04/11 05:07:47;;;;;;;8.95;2.85;;;-0.10;99.90;;;;;;4953618;29;20031;-75
2022/04/11 05:10:14;;;;;;;1.98;1.52;;;0.10;99.90;;;;;;4951921;29;20043;-74
2022/04/11 05:12:44;;;;;;;2.10;1.88;;;0.10;99.90;;;;;;4952366;29;20054;-76
2022/04/11 05:15:11;;;;;;;2.40;2.20;;;0.10;99.90;;;;;;4952541;29;20223;-75
2022/04/11 05:17:36;;;;;;;2.03;1.85;;;0.10;99.90;;;;;;4951853;29;20035;-75
2022/04/11 05:20:04;;;;;;;5.28;2.28;;;0.10;99.90;;;;;;4952212;29;20089;-75
2022/04/11 05:22:30;;;;;;;2.47;2.17;;;0.10;99.90;;;;;;4952231;29;20115;-75
2022/04/11 05:24:56;;;;;;;6.00;2.35;;;0.30;99.90;;;;;;4951931;29;20483;-75
2022/04/11 05:27:21;;;;;;;4.22;2.70;;;0.30;99.90;;;;;;4952927;29;20329;-75
2022/04/11 05:29:47;;;;;;;2.45;1.75;;;0.40;99.90;;;;;;4951751;29;20152;-75
2022/04/11 05:32:13;;;;;;;2.45;1.73;;;0.50;99.90;;;;;;4952205;29;20043;-75
2022/04/11 05:34:38;;;;;;;2.15;1.88;;;0.50;99.90;;;;;;4952521;29;20292;-75
2022/04/11 05:37:04;;;;;;;2.38;1.95;;;0.70;99.90;;;;;;4951984;29;20027;-75
2022/04/11 05:39:30;;;;;;;5.78;2.35;;;0.90;99.90;;;;;;4951876;29;20106;-75
2022/04/11 05:41:56;;;;;;;2.35;1.80;;;1.00;99.90;;;;;;4952964;29;20422;-75
2022/04/11 05:44:22;;;;;;;3.95;1.35;;;1.20;99.90;;;;;;4952189;29;20346;-75
2022/04/11 05:46:52;;;;;;;2.28;1.80;;;1.50;99.90;;;;;;4952383;29;20035;-75
2022/04/11 05:49:20;;;;;;;1.95;1.52;;;1.80;99.90;;;;;;4952737;29;20055;-75
2022/04/11 05:51:46;;;;;;;2.05;1.85;;;2.30;99.90;;;;;;4935104;29;20366;-75
2022/04/11 05:54:11;;;;;;;1.73;1.63;;;2.80;99.90;;;;;;4952192;29;20023;-75
2022/04/11 05:56:37;;;;;;;2.70;1.35;;;3.10;99.90;;;;;;4952566;29;20027;-76
2022/04/11 05:59:04;;;;;;;1.95;1.85;;;3.40;99.90;;;;;;4953134;29;20078;-76
2022/04/11 06:01:32;;;;;;;2.70;1.98;;;3.40;99.90;;;;;;4953514;29;20424;-75
2022/04/11 06:03:58;;;;;;;4.70;2.60;;;3.30;99.90;;;;;;4935201;29;20042;-76
2022/04/11 06:06:23;;;;;;;3.22;2.38;;;3.40;99.90;;;;;;4936412;29;20271;-75
2022/04/11 06:08:49;;;;;;;3.83;2.67;;;3.40;99.90;;;;;;4939856;29;20038;-75
2022/04/11 06:11:15;;;;;;;6.43;2.97;;;3.40;99.90;;;;;;4956334;29;20034;-75
2022/04/11 06:13:45;;;;;;;2.95;2.75;;;3.60;99.90;;;;;;4955583;29;20050;-75
2022/04/11 06:16:11;;;;;;;10.15;3.13;;;3.90;99.90;;;;;;4938600;29;20045;-75
2022/04/11 06:18:37;;;;;;;5.53;2.58;;;4.30;99.90;;;;;;4938268;29;20074;-75
2022/04/11 06:21:03;;;;;;;5.63;3.97;;;4.60;99.90;;;;;;4956709;29;20031;-75
2022/04/11 06:23:29;;;;;;;5.28;2.63;;;4.90;99.90;;;;;;4956415;29;20027;-75
2022/04/11 06:25:54;;;;;;;4.07;3.13;;;5.00;99.90;;;;;;4937730;29;20035;-76
2022/04/11 06:28:20;;;;;;;5.13;2.03;;;5.10;99.90;;;;;;4938043;29;20020;-75
2022/04/11 06:30:46;;;;;;;2.53;2.13;;;5.20;99.90;;;;;;4955435;29;20077;-75
2022/04/11 06:33:11;;;;;;;2.92;2.45;;;5.40;99.90;;;;;;4955599;29;20415;-75
2022/04/11 06:35:37;;;;;;;2.67;2.08;;;5.40;99.90;;;;;;4956226;29;20436;-74
2022/04/11 06:38:03;;;;;;;4.20;2.15;;;6.10;99.90;;;;;;4956185;29;20039;-74
2022/04/11 06:40:28;;;;;;;2.88;2.33;;;6.10;99.90;;;;;;4955159;29;20023;-75
2022/04/11 06:42:54;;;;;;;3.35;2.63;;;6.40;99.90;;;;;;4954715;29;20031;-75
2022/04/11 06:45:20;;;;;;;2.90;1.35;;;6.70;99.90;;;;;;4954628;29;20023;-75
2022/04/11 06:47:47;;;;;;;2.17;1.27;;;6.80;99.90;;;;;;4954950;29;20031;-75
2022/04/11 06:50:14;;;;;;;1.30;1.20;;;7.00;99.90;;;;;;4955209;29;20030;-75
2022/04/11 06:52:40;;;;;;;1.65;1.55;;;7.00;99.90;;;;;;4956164;29;20096;-75
2022/04/11 06:55:06;;;;;;;1.80;1.13;;;6.90;99.90;;;;;;4954842;29;20354;-74
2022/04/11 06:57:32;;;;;;;2.13;1.45;;;6.90;99.40;;;;;;4955212;29;20023;-75
2022/04/11 06:59:58;;;;;;;1.88;1.75;;;7.00;98.40;;;;;;4954650;29;20030;-74
2022/04/11 07:02:23;;;;;;;2.92;1.15;;;7.00;97.60;;;;;;4954540;29;20061;-75
2022/04/11 07:04:49;;;;;;;1.88;1.08;;;6.90;98.00;;;;;;4955052;29;20480;-75
2022/04/11 07:07:15;;;;;;;1.05;0.98;;;6.90;98.30;;;;;;4955211;29;20496;-74
2022/04/11 07:09:40;;;;;;;1.92;1.20;;;7.20;96.80;;;;;;4955469;29;20028;-75
2022/04/11 07:12:07;;;;;;;3.17;1.30;;;7.10;95.90;;;;;;4954970;29;20424;-75
2022/04/11 07:14:33;;;;;;;3.05;1.20;;;7.20;97.00;;;;;;4956236;29;20543;-74
2022/04/11 07:16:58;;;;;;;1.33;1.23;;;7.00;94.90;;;;;;4953990;28;20075;-75
2022/04/11 07:19:24;;;;;;;1.45;1.00;;;7.00;95.40;;;;;;4954561;29;20499;-74
2022/04/11 07:21:50;;;;;;;4.43;1.30;;;7.00;95.30;;;;;;4954490;29;20023;-75
2022/04/11 07:24:16;;;;;;;2.00;1.20;;;7.30;96.30;;;;;;4954305;29;20122;-75
2022/04/11 07:26:41;;;;;;;1.00;1.00;;;7.50;97.00;;;;;;4954397;29;20027;-75
2022/04/11 07:29:08;;;;;;;1.83;1.30;;;7.60;93.70;;;;;;4954768;28;20448;-75
2022/04/11 07:31:34;;;;;;;1.60;1.50;;;7.60;94.50;;;;;;4954473;29;20036;-75
2022/04/11 07:34:01;;;;;;;3.53;1.50;;;7.80;94.90;;;;;;4954201;29;20031;-75
2022/04/11 07:36:28;;;;;;;4.75;1.35;;;8.00;93.30;;;;;;4954056;29;20038;-75
2022/04/11 07:38:55;;;;;;;2.53;2.00;;;8.20;91.50;;;;;;4953489;29;20019;-75
2022/04/11 07:41:21;;;;;;;4.97;2.85;;;8.00;90.20;;;;;;4953463;29;20380;-74
2022/04/11 07:43:47;;;;;;;2.55;1.15;;;8.30;92.10;;;;;;4953753;29;20039;-75
2022/04/11 07:46:12;;;;;;;2.85;1.17;;;8.60;90.10;;;;;;4953818;29;20440;-75
2022/04/11 07:48:38;;;;;;;1.67;1.58;;;8.90;89.50;;;;;;4936478;29;20426;-75
2022/04/11 07:51:04;;;;;;;1.38;1.33;;;8.70;84.60;;;;;;4953625;29;20035;-75
2022/04/11 07:53:29;;;;;;;1.85;1.33;;;8.70;84.00;;;;;;4953070;29;20121;-75
2022/04/11 07:55:55;;;;;;;1.27;1.27;;;8.40;85.60;;;;;;4954151;29;20030;-75
2022/04/11 07:58:21;;;;;;;2.10;1.77;;;8.50;85.00;;;;;;4954027;29;20035;-75
2022/04/11 08:00:51;;;;;;;1.40;1.30;;;8.60;84.90;;;;;;4953849;29;20177;-75
2022/04/11 08:03:17;;;;;;;1.88;1.20;;;8.60;86.80;;;;;;4954961;29;20034;-75
2022/04/11 08:05:43;;;;;;;1.27;1.05;;;8.80;85.80;;;;;;4954293;29;20396;-75
2022/04/11 08:08:09;;;;;;;1.52;0.98;;;8.80;86.50;;;;;;4953799;29;20038;-74
2022/04/11 08:10:34;;;;;;;3.30;1.73;;;8.80;85.90;;;;;;4936401;29;20523;-75
2022/04/11 08:13:01;;;;;;;1.85;1.42;;;9.00;85.10;;;;;;4953994;29;20035;-75
2022/04/11 08:15:29;;;;;;;1.25;1.15;;;9.30;84.30;;;;;;4954064;29;20027;-75
2022/04/11 08:17:55;;;;;;;2.95;1.20;;;9.60;81.40;;;;;;4953973;29;20235;-75
2022/04/11 08:20:22;;;;;;;1.10;1.00;;;9.60;81.00;;;;;;4953540;29;20019;-74
2022/04/11 08:22:47;;;;;;;4.30;0.80;;;10.00;79.30;;;;;;4953920;29;20369;-79
2022/04/11 08:25:17;;;;;;;3.88;1.63;;;10.20;75.00;;;;;;4936522;29;20465;-75
2022/04/11 08:27:43;;;;;;;1.77;1.67;;;10.20;75.50;;;;;;4953303;29;20031;-74
2022/04/11 08:30:10;;;;;;;2.53;1.30;;;10.10;76.00;;;;;;4953570;28;20393;-75
2022/04/11 08:32:46;;;;;;;2.67;1.00;;;10.40;77.20;;;;;;4920118;29;20099;-76
2022/04/11 08:35:13;;;;;;;6.50;3.10;;;10.80;75.80;;;;;;4952842;29;20015;-75
2022/04/11 08:37:40;;;;;;;4.03;2.17;;;10.90;75.50;;;;;;4952639;29;20027;-75
2022/04/11 08:40:10;;;;;;;1.75;1.38;;;11.40;74.60;;;;;;4952359;29;20102;-75
2022/04/11 08:42:38;;;;;;;1.40;1.30;;;11.10;72.60;;;;;;4952828;29;20047;-75
2022/04/11 08:45:04;;;;;;;2.35;1.23;;;10.90;72.40;;;;;;4952777;29;20058;-74
2022/04/11 08:47:30;;;;;;;2.95;1.60;;;11.10;76.20;;;;;;4953824;29;20023;-75
2022/04/11 08:49:56;;;;;;;7.88;1.17;;;11.00;72.60;;;;;;4954425;29;20030;-74
2022/04/11 08:52:22;;;;;;;2.10;1.20;;;11.10;74.00;;;;;;4952793;29;20496;-74
2022/04/11 08:54:48;;;;;;;1.20;1.10;;;11.10;73.70;;;;;;4953388;29;20075;-75
2022/04/11 08:57:14;;;;;;;1.85;1.13;;;11.20;70.80;;;;;;4952708;29;20028;-75
2022/04/11 08:59:39;;;;;;;4.35;1.27;;;11.20;71.30;;;;;;4953563;29;20059;-74
2022/04/11 09:02:09;;;;;;;2.25;0.80;;;11.00;71.30;;;;;;4952389;29;20252;-75
2022/04/11 09:04:51;;;;;;;1.70;1.13;;;11.00;72.40;;;;;;4952479;29;20023;-75
2022/04/11 09:07:17;;;;;;;3.67;1.05;;;10.90;72.70;;;;;;4952172;29;20498;-75
2022/04/11 09:09:43;;;;;;;3.42;1.00;;;11.30;74.40;;;;;;4952210;29;20035;-74
2022/04/11 09:12:16;;;;;;;1.33;1.02;;;11.30;72.90;;;;;;4952425;29;20038;-75
2022/04/11 09:14:43;;;;;;;1.52;1.00;;;11.50;75.20;;;;;;4952482;29;20094;-75
2022/04/11 09:17:09;;;;;;;1.90;1.30;;;11.50;72.70;;;;;;4952918;29;20020;-76
2022/04/11 09:19:36;;;;;;;1.70;1.20;;;11.40;71.90;;;;;;4952904;29;20093;-75
2022/04/11 09:22:02;;;;;;;1.55;1.23;;;11.30;71.70;;;;;;4953432;29;20472;-75
2022/04/11 09:24:30;;;;;;;3.90;2.95;;;11.40;70.60;;;;;;4952473;29;20049;-75
2022/04/11 09:26:57;;;;;;;2.85;1.65;;;11.50;71.50;;;;;;4953079;29;20030;-75
2022/04/11 09:29:27;;;;;;;1.65;1.40;;;13.30;72.70;;;;;;4953152;28;20090;-75
2022/04/11 09:31:53;;;;;;;1.30;1.20;;;11.70;71.00;;;;;;4952633;29;20149;-75
2022/04/11 09:34:25;;;;;;;1.30;1.20;;;12.00;71.30;;;;;;4952890;29;20027;-75
2022/04/11 09:36:52;;;;;;;1.63;1.20;;;12.00;70.00;;;;;;4952891;29;20155;-75
2022/04/11 09:39:25;;;;;;;2.13;1.20;;;11.60;69.40;;;;;;4953436;29;20027;-75
2022/04/11 09:41:52;;;;;;;3.53;2.58;;;11.80;71.40;;;;;;4957744;28;20025;-75
2022/04/11 09:44:25;;;;;;;3.05;1.00;;;11.70;69.60;;;;;;4959831;28;20046;-75
2022/04/11 09:47:03;;;;;;;0.73;0.68;;;11.70;70.30;;;;;;4959178;29;20400;-75
2022/04/11 09:49:29;;;;;;;2.40;1.00;;;12.00;71.80;;;;;;4959090;28;20074;-75
2022/04/11 09:52:12;;;;;;;6.68;1.30;;;12.10;71.10;;;;;;4959419;28;20291;-75
2022/04/11 09:54:39;;;;;;;1.00;0.90;;;12.20;69.20;;;;;;4958495;29;20027;-75
2022/04/11 09:57:06;;;;;;;1.73;1.20;;;12.40;70.80;;;;;;4958605;29;20023;-74
2022/04/11 09:59:33;;;;;;;3.10;1.50;;;12.40;69.60;;;;;;4958837;28;20023;-75
2022/04/11 10:01:59;;;;;;;0.85;0.85;;;12.60;68.40;;;;;;4959085;28;20034;-74
2022/04/11 10:04:25;;;;;;;0.88;0.88;;;12.50;69.20;;;;;;4958920;28;20027;-75
2022/04/11 10:06:52;;;;;;;1.20;1.10;;;12.40;69.00;;;;;;4958760;29;20456;-74
2022/04/11 10:09:23;;;;;;;1.13;0.60;;;12.70;69.20;;;;;;4958466;29;20027;-75
2022/04/11 10:11:50;;;;;;;2.42;0.80;;;12.90;66.90;;;;;;4942968;29;20074;-75
2022/04/11 10:14:17;;;;;;;1.48;1.25;;;13.10;66.80;;;;;;4959835;29;20020;-75
2022/04/11 10:16:44;;;;;;;1.05;0.80;;;13.10;66.60;;;;;;4959056;29;20034;-74
2022/04/11 10:19:10;;;;;;;4.53;1.00;;;13.30;67.50;;;;;;4959095;29;20034;-75
2022/04/11 10:21:43;;;;;;;2.15;0.80;;;13.60;66.20;;;;;;4958464;28;20023;-75
2022/04/11 10:24:25;;;;;;;0.90;0.90;;;13.50;65.90;;;;;;4958690;28;20023;-77
2022/04/11 10:26:56;;;;;;;1.30;1.15;;;13.50;64.90;;;;;;4959078;28;20016;-75
2022/04/11 10:29:38;;;;;;;4.38;1.75;;;13.60;65.90;;;;;;4957860;28;20086;-75
2022/04/11 10:32:08;;;;;;;1.52;1.33;;;13.90;66.10;;;;;;4958015;29;20042;-75
2022/04/11 10:34:53;;;;;;;3.45;2.50;;;14.00;63.90;;;;;;4958535;28;20083;-75
2022/04/11 10:37:22;;;;;;;3.60;2.40;;;14.20;65.10;;;;;;4958905;29;20460;-75
2022/04/11 10:39:48;;;;;;;3.90;2.17;;;14.80;65.20;;;;;;4958427;29;20034;-75
2022/04/11 10:42:15;;;;;;;1.23;0.85;;;14.80;64.00;;;;;;4958391;29;20032;-80
2022/04/11 10:44:59;;;;;;;2.17;0.73;;;15.50;61.00;;;;;;4958339;28;20106;-75
2022/04/11 10:47:30;;;;;;;1.30;1.20;;;14.60;61.20;;;;;;4958438;29;20069;-75
2022/04/11 10:50:01;;;;;;;5.38;1.55;;;14.60;61.40;;;;;;4958294;28;20027;-75
2022/04/11 10:52:36;;;;;;;2.33;0.80;;;14.80;61.40;;;;;;4956783;28;20388;-75
2022/04/11 10:55:08;;;;;;;2.78;0.93;;;15.30;60.00;;;;;;4955475;29;20059;-75
2022/04/11 10:57:44;;;;;;;1.73;1.20;;;15.00;60.10;;;;;;4955244;29;20051;-75
2022/04/11 11:00:18;;;;;;;2.85;1.17;;;15.10;60.10;;;;;;4955884;29;20043;-75
2022/04/11 11:02:50;;;;;;;1.10;0.90;;;15.20;61.10;;;;;;4937443;29;20056;-75
2022/04/11 11:05:39;;;;;;;1.50;0.90;;;15.80;60.60;;;;;;4954205;29;20095;-76
2022/04/11 11:08:11;;;;;;;0.65;0.63;;;16.40;59.30;;;;;;4954606;29;20046;-75
2022/04/11 11:10:43;;;;;;;9.02;3.22;;;16.20;59.00;;;;;;4954645;29;20019;-75
2022/04/11 11:13:34;;;;;;;1.38;0.68;;;15.90;59.10;;;;;;4954336;29;20031;-74
2022/04/11 11:16:11;;;;;;;5.35;1.70;;;16.30;57.30;;;;;;4937805;29;20400;-75
2022/04/11 11:18:52;;;;;;;1.00;1.00;;;16.30;59.50;;;;;;4955137;29;20401;-75
2022/04/11 11:21:17;;;;;;;9.45;4.28;;;16.00;59.50;;;;;;4955482;29;20027;-75
2022/04/11 11:24:02;;;;;;;1.75;1.15;;;15.90;57.30;;;;;;4937814;29;20023;-75
2022/04/11 11:26:38;;;;;;;1.75;1.20;;;15.90;58.40;;;;;;4937443;29;20122;-75
2022/04/11 11:29:26;;;;;;;1.08;0.88;;;16.30;57.50;;;;;;4936853;29;20074;-76
2022/04/11 11:32:05;;;;;;;1.10;0.60;;;16.50;58.50;;;;;;4955983;29;20035;-75
2022/04/11 11:34:38;;;;;;;0.93;0.90;;;16.30;59.60;;;;;;4954543;29;20416;-75
2022/04/11 11:37:07;;;;;;;1.42;1.00;;;16.10;57.90;;;;;;4937964;29;20402;-75
2022/04/11 11:39:35;;;;;;;1.13;1.00;;;16.50;57.00;;;;;;4937104;29;20436;-75
2022/04/11 11:42:06;;;;;;;0.63;0.63;;;16.90;56.70;;;;;;4935991;29;20028;-76
2022/04/11 11:44:40;;;;;;;0.80;0.80;;;16.70;58.40;;;;;;4955024;29;20031;-74
2022/04/11 11:47:06;;;;;;;1.15;0.80;;;16.90;56.90;;;;;;4954465;29;20163;-75
2022/04/11 11:49:40;;;;;;;1.20;0.75;;;17.60;57.40;;;;;;4936741;29;20210;-75
2022/04/11 11:52:17;;;;;;;1.58;1.00;;;17.40;55.30;;;;;;4954889;29;20027;-75
2022/04/11 11:54:47;;;;;;;0.65;0.55;;;16.50;56.50;;;;;;4954607;29;20452;-74
2022/04/11 11:57:27;;;;;;;5.85;0.60;;;16.50;57.90;;;;;;4954474;29;20019;-75
2022/04/11 12:00:03;;;;;;;1.10;1.00;;;16.90;55.60;;;;;;4955401;29;20405;-75
2022/04/11 12:05:21;;;;;;;0.68;0.68;;;17.50;54.00;;;;;;4952784;29;20384;-75
2022/04/11 12:07:49;;;;;;;1.70;0.47;;;17.80;54.50;;;;;;4952747;29;20019;-75
2022/04/11 12:10:17;;;;;;;3.17;0.73;;;18.10;55.20;;;;;;4955192;29;20086;-74
2022/04/11 12:12:44;;;;;;;0.70;0.70;;;18.50;54.00;;;;;;4954368;29;20492;-74
2022/04/11 12:15:10;;;;;;;2.20;0.70;;;18.20;53.60;;;;;;4953839;29;20027;-76
2022/04/11 12:17:44;;;;;;;0.52;0.52;;;19.00;53.00;;;;;;4952561;29;20033;-74
2022/04/11 12:20:21;;;;;;;0.88;0.88;;;19.20;53.90;;;;;;4952450;29;20035;-75
2022/04/11 12:23:02;;;;;;;1.85;1.05;;;20.60;55.10;;;;;;4935074;29;20031;-76
2022/04/11 12:25:33;;;;;;;2.65;0.80;;;18.90;52.90;;;;;;4952323;29;20026;-75
2022/04/11 12:28:23;;;;;;;1.77;0.57;;;18.80;52.70;;;;;;4952396;29;20019;-75
2022/04/11 12:31:17;;;;;;;1.05;0.98;;;19.10;52.20;;;;;;4952486;29;20042;-75
2022/04/11 12:33:46;;;;;;;1.05;0.80;;;19.00;53.90;;;;;;4952448;29;20519;-75
2022/04/11 12:36:16;;;;;;;0.77;0.63;;;18.70;53.90;;;;;;4954266;29;20035;-75
2022/04/11 12:38:44;;;;;;;0.68;0.63;;;18.50;54.20;;;;;;4952805;29;20023;-75
2022/04/11 12:41:36;;;;;;;4.60;0.88;;;18.40;54.70;;;;;;4952425;29;20028;-75
2022/04/11 12:44:32;;;;;;;0.57;0.57;;;18.20;54.40;;;;;;4953008;29;20027;-75
2022/04/11 12:47:00;;;;;;;2.83;1.00;;;18.40;54.80;;;;;;4951942;29;20082;-79
2022/04/11 12:49:43;;;;;;;1.20;0.75;;;19.00;54.00;;;;;;4934703;29;20376;-76
2022/04/11 12:52:09;;;;;;;2.90;1.00;;;19.20;52.50;;;;;;4952241;29;20130;-75
2022/04/11 12:54:44;;;;;;;1.90;0.88;;;19.40;52.80;;;;;;4952344;29;20110;-75
2022/04/11 12:57:21;;;;;;;0.85;0.60;;;19.30;52.50;;;;;;4934563;29;20051;-75
2022/04/11 12:59:47;;;;;;;1.27;0.68;;;19.30;52.30;;;;;;4935855;29;20028;-75